createdAt,value
2023-07-18T00:00:34.157Z,96513.94
2023-07-18T00:03:01.099Z,96507.69
2023-07-18T00:05:27.878Z,96519.75
2023-07-18T00:07:54.642Z,96519.16
2023-07-18T00:10:21.328Z,96524.22
2023-07-18T00:12:48.018Z,96528.47
2023-07-18T00:15:14.937Z,96529.56
2023-07-18T00:17:42.525Z,96522.38
2023-07-18T00:20:18.537Z,96520.28
2023-07-18T00:22:49.452Z,96523.41
2023-07-18T00:25:20.196Z,96519.38
2023-07-18T00:27:48.058Z,96521.47
2023-07-18T00:30:14.932Z,96517.53
2023-07-18T00:32:43.428Z,96513.00
2023-07-18T00:35:12.495Z,96522.44
2023-07-18T00:37:39.992Z,96533.91
2023-07-18T00:40:15.936Z,96517.91
2023-07-18T00:42:46.306Z,96529.44
2023-07-18T00:45:13.319Z,96524.97
2023-07-18T00:47:42.941Z,96526.22
2023-07-18T00:50:12.499Z,96526.03
2023-07-18T00:52:45.090Z,96525.88
2023-07-18T00:55:13.062Z,96526.31
2023-07-18T00:57:41.868Z,96519.25
2023-07-18T01:00:10.681Z,96523.50
2023-07-18T01:02:39.303Z,96522.06
2023-07-18T01:05:07.900Z,96532.44
2023-07-18T01:07:35.919Z,96511.78
2023-07-18T01:10:15.451Z,96507.19
2023-07-18T01:12:41.998Z,96505.19
2023-07-18T01:15:09.538Z,96502.28
2023-07-18T01:17:36.629Z,96489.84
2023-07-18T01:20:05.823Z,96471.06
2023-07-18T01:22:32.450Z,96484.75
2023-07-18T01:24:58.963Z,96483.97
2023-07-18T01:27:25.497Z,96467.91
2023-07-18T01:29:52.679Z,96471.44
2023-07-18T01:32:19.194Z,96482.97
2023-07-18T01:34:45.773Z,96483.03
2023-07-18T01:37:16.208Z,96479.78
2023-07-18T01:39:44.597Z,96478.50
2023-07-18T01:42:11.453Z,96479.84
2023-07-18T01:44:38.031Z,96487.19
2023-07-18T01:47:04.867Z,96481.66
2023-07-18T01:49:32.285Z,96481.16
2023-07-18T01:52:01.333Z,96475.22
2023-07-18T01:54:28.522Z,96465.69
2023-07-18T01:56:55.181Z,96477.44
2023-07-18T01:59:23.114Z,96469.16
2023-07-18T02:01:50.249Z,96469.81
2023-07-18T02:04:16.925Z,96466.66
2023-07-18T02:06:43.452Z,96467.63
2023-07-18T02:09:11.026Z,96467.66
2023-07-18T02:11:37.582Z,96471.63
2023-07-18T02:14:05.171Z,96475.41
2023-07-18T02:16:32.795Z,96471.31
2023-07-18T02:19:01.987Z,96473.53
2023-07-18T02:21:31.631Z,96471.16
2023-07-18T02:23:58.159Z,96471.47
2023-07-18T02:26:24.740Z,96461.84
2023-07-18T02:28:52.313Z,96467.34
2023-07-18T02:31:19.172Z,96464.97
2023-07-18T02:33:46.161Z,96470.66
2023-07-18T02:36:13.276Z,96464.09
2023-07-18T02:38:39.999Z,96471.97
2023-07-18T02:41:06.585Z,96463.97
2023-07-18T02:43:33.096Z,96453.78
2023-07-18T02:45:59.647Z,96458.94
2023-07-18T02:48:26.393Z,96462.41
2023-07-18T02:50:52.946Z,96457.72
2023-07-18T02:53:19.591Z,96460.88
2023-07-18T02:55:46.115Z,96462.13
2023-07-18T02:58:12.651Z,96470.94
2023-07-18T03:00:39.257Z,96462.31
2023-07-18T03:03:05.970Z,96449.44
2023-07-18T03:05:34.115Z,96462.91
2023-07-18T03:08:00.763Z,96472.53
2023-07-18T03:10:29.028Z,96472.41
2023-07-18T03:12:55.657Z,96471.13
2023-07-18T03:15:22.763Z,96462.31
2023-07-18T03:17:49.505Z,96470.31
2023-07-18T03:20:20.475Z,96474.25
2023-07-18T03:22:49.121Z,96469.69
2023-07-18T03:25:18.552Z,96466.25
2023-07-18T03:27:45.506Z,96457.75
2023-07-18T03:30:13.200Z,96470.19
2023-07-18T03:32:40.924Z,96470.94
2023-07-18T03:35:12.241Z,96471.44
2023-07-18T03:37:38.948Z,96466.72
2023-07-18T03:40:07.431Z,96469.88
2023-07-18T03:42:35.063Z,96455.41
2023-07-18T03:45:02.099Z,96473.31
2023-07-18T03:47:29.386Z,96464.03
2023-07-18T03:49:57.195Z,96469.38
2023-07-18T03:52:24.020Z,96467.50
2023-07-18T03:54:50.734Z,96471.59
2023-07-18T03:57:17.334Z,96472.84
2023-07-18T03:59:44.132Z,96460.75
2023-07-18T04:02:11.283Z,96470.19
2023-07-18T04:04:37.917Z,96473.00
2023-07-18T04:07:04.754Z,96452.09
2023-07-18T04:09:32.046Z,96475.53
2023-07-18T04:11:58.618Z,96459.50
2023-07-18T04:14:25.166Z,96456.97
2023-07-18T04:16:52.472Z,96463.41
2023-07-18T04:19:19.480Z,96463.88
2023-07-18T04:21:46.277Z,96461.03
2023-07-18T04:24:12.883Z,96456.19
2023-07-18T04:26:39.407Z,96457.78
2023-07-18T04:29:06.472Z,96447.56
2023-07-18T04:31:33.499Z,96448.50
2023-07-18T04:34:00.556Z,96453.53
2023-07-18T04:36:27.100Z,96443.78
2023-07-18T04:38:53.602Z,96446.31
2023-07-18T04:41:20.273Z,96440.03
2023-07-18T04:43:47.235Z,96431.22
2023-07-18T04:46:13.780Z,96435.63
2023-07-18T04:48:41.489Z,96426.81
2023-07-18T04:51:08.178Z,96419.28
2023-07-18T04:53:34.760Z,96415.78
2023-07-18T04:56:01.436Z,96420.34
2023-07-18T04:58:29.087Z,96421.28
2023-07-18T05:00:56.549Z,96415.78
2023-07-18T05:03:23.838Z,96413.56
2023-07-18T05:05:50.446Z,96424.25
2023-07-18T05:08:18.217Z,96430.38
2023-07-18T05:10:45.860Z,96434.63
2023-07-18T05:13:12.460Z,96431.00
2023-07-18T05:15:39.123Z,96432.81
2023-07-18T05:18:05.817Z,96433.91
2023-07-18T05:20:32.520Z,96418.81
2023-07-18T05:22:59.877Z,96426.91
2023-07-18T05:25:26.662Z,96422.50
2023-07-18T05:27:53.223Z,96430.94
2023-07-18T05:30:20.790Z,96425.06
2023-07-18T05:32:47.963Z,96424.91
2023-07-18T05:35:15.386Z,96422.03
2023-07-18T05:37:43.187Z,96433.94
2023-07-18T05:40:11.137Z,96424.59
2023-07-18T05:42:39.228Z,96422.22
2023-07-18T05:45:08.986Z,96421.34
2023-07-18T05:47:39.747Z,96423.19
2023-07-18T05:50:07.609Z,96414.75
2023-07-18T05:52:35.247Z,96410.56
2023-07-18T05:55:02.532Z,96425.75
2023-07-18T05:57:29.235Z,96414.97
2023-07-18T05:59:55.885Z,96411.13
2023-07-18T06:02:23.090Z,96401.06
2023-07-18T06:04:49.746Z,96409.41
2023-07-18T06:07:16.897Z,96393.31
2023-07-18T06:09:43.853Z,96397.81
2023-07-18T06:12:10.608Z,96402.84
2023-07-18T06:14:37.180Z,96402.41
2023-07-18T06:17:04.463Z,96402.97
2023-07-18T06:19:31.137Z,96394.94
2023-07-18T06:21:58.201Z,96394.94
2023-07-18T06:24:25.588Z,96400.19
2023-07-18T06:26:52.600Z,96392.81
2023-07-18T06:29:20.660Z,96393.13
2023-07-18T06:31:48.659Z,96389.78
2023-07-18T06:34:18.455Z,96388.88
2023-07-18T06:36:46.795Z,96379.81
2023-07-18T06:39:14.869Z,96383.69
2023-07-18T06:41:41.671Z,96384.06
2023-07-18T06:44:10.347Z,96382.72
2023-07-18T06:46:37.399Z,96378.31
2023-07-18T06:49:04.786Z,96371.47
2023-07-18T06:51:31.363Z,96368.78
2023-07-18T06:53:57.976Z,96370.00
2023-07-18T06:56:24.659Z,96359.25
2023-07-18T06:58:51.187Z,96373.63
2023-07-18T07:01:18.278Z,96369.31
2023-07-18T07:03:45.269Z,96371.66
2023-07-18T07:06:13.237Z,96368.69
2023-07-18T07:08:39.820Z,96369.06
2023-07-18T07:11:08.715Z,96371.06
2023-07-18T07:13:36.761Z,96362.81
2023-07-18T07:16:04.602Z,96354.22
2023-07-18T07:18:31.635Z,96350.59
2023-07-18T07:20:58.630Z,96352.22
2023-07-18T07:23:25.327Z,96348.97
2023-07-18T07:25:52.343Z,96333.94
2023-07-18T07:28:20.497Z,96329.59
2023-07-18T07:30:47.245Z,96323.53
2023-07-18T07:33:14.095Z,96325.41
2023-07-18T07:35:40.720Z,96334.25
2023-07-18T07:38:08.078Z,96336.28
2023-07-18T07:40:34.919Z,96332.03
2023-07-18T07:43:01.543Z,96323.03
2023-07-18T07:45:28.065Z,96327.56
2023-07-18T07:47:54.765Z,96309.53
2023-07-18T07:50:21.478Z,96312.47
2023-07-18T07:52:48.222Z,96302.81
2023-07-18T07:55:14.985Z,96303.97
2023-07-18T07:57:42.850Z,96278.88
2023-07-18T08:00:09.983Z,96289.66
2023-07-18T08:02:37.392Z,96303.09
2023-07-18T08:05:04.502Z,96303.06
2023-07-18T08:07:31.258Z,96237.53
2023-07-18T08:09:58.696Z,96256.63
2023-07-18T08:12:25.361Z,96238.94
2023-07-18T08:14:51.911Z,96252.16
2023-07-18T08:17:19.064Z,96196.16
2023-07-18T08:19:46.104Z,96257.22
2023-07-18T08:22:12.681Z,96233.88
2023-07-18T08:24:39.360Z,96283.28
2023-07-18T08:27:06.571Z,96205.72
2023-07-18T08:29:34.600Z,96245.84
2023-07-18T08:32:01.692Z,96281.34
2023-07-18T08:34:28.504Z,96271.00
2023-07-18T08:36:55.012Z,96260.16
2023-07-18T08:39:21.670Z,96271.28
2023-07-18T08:41:52.690Z,96261.22
2023-07-18T08:44:21.592Z,96221.28
2023-07-18T08:46:48.634Z,96243.09
2023-07-18T08:49:18.426Z,96243.38
2023-07-18T08:51:45.605Z,96249.41
2023-07-18T08:54:13.857Z,96248.59
2023-07-18T08:56:42.447Z,96191.03
2023-07-18T08:59:09.000Z,96245.84
2023-07-18T09:01:36.276Z,96230.63
2023-07-18T09:04:03.187Z,96232.28
2023-07-18T09:06:29.911Z,96179.31
2023-07-18T09:08:56.586Z,96219.09
2023-07-18T09:11:23.534Z,96214.50
2023-07-18T09:13:50.438Z,96216.72
2023-07-18T09:16:19.955Z,96227.19
2023-07-18T09:18:55.093Z,96205.03
2023-07-18T09:21:24.033Z,96211.22
2023-07-18T09:23:51.702Z,96178.63
2023-07-18T09:26:22.726Z,96195.53
2023-07-18T09:28:49.787Z,96178.84
2023-07-18T09:31:24.829Z,96189.16
2023-07-18T09:33:53.718Z,96162.91
2023-07-18T09:36:28.168Z,96163.00
2023-07-18T09:38:54.696Z,96184.66
2023-07-18T09:41:22.910Z,96177.69
2023-07-18T09:43:57.969Z,96159.16
2023-07-18T09:46:40.941Z,96144.91
2023-07-18T09:49:14.341Z,96178.22
2023-07-18T09:51:51.486Z,96136.31
2023-07-18T09:54:20.149Z,96192.44
2023-07-18T09:56:49.193Z,96153.16
2023-07-18T09:59:16.758Z,96181.97
2023-07-18T10:01:44.006Z,96169.56
2023-07-18T10:04:10.943Z,96157.53
2023-07-18T10:06:37.758Z,96168.50
2023-07-18T10:09:04.690Z,96156.47
2023-07-18T10:11:31.271Z,96126.97
2023-07-18T10:14:06.888Z,96170.13
2023-07-18T10:16:36.575Z,96138.00
2023-07-18T10:19:19.848Z,96165.63
2023-07-18T10:21:47.850Z,96164.25
2023-07-18T10:24:21.190Z,96163.09
2023-07-18T10:26:49.611Z,96141.81
2023-07-18T10:29:16.217Z,96145.34
2023-07-18T10:31:42.938Z,96113.63
2023-07-18T10:34:11.701Z,96160.25
2023-07-18T10:36:39.602Z,96155.63
2023-07-18T10:39:12.250Z,96163.47
2023-07-18T10:41:43.077Z,96163.50
2023-07-18T10:44:15.279Z,96110.13
2023-07-18T10:46:42.378Z,96134.53
2023-07-18T10:49:08.942Z,96144.22
2023-07-18T10:51:35.963Z,96150.06
2023-07-18T10:54:03.446Z,96126.44
2023-07-18T10:56:30.003Z,96126.44
2023-07-18T10:58:56.963Z,96129.16
2023-07-18T11:01:28.217Z,96132.25
2023-07-18T11:03:57.099Z,96110.94
2023-07-18T11:06:24.145Z,96087.75
2023-07-18T11:08:50.808Z,96131.06
2023-07-18T11:11:19.621Z,96133.38
2023-07-18T11:13:46.604Z,96116.69
2023-07-18T11:16:16.533Z,96127.09
2023-07-18T11:18:49.702Z,96150.66
2023-07-18T11:21:18.552Z,96146.44
2023-07-18T11:23:45.940Z,96173.53
2023-07-18T11:26:17.829Z,96108.47
2023-07-18T11:28:54.989Z,96163.38
2023-07-18T11:33:58.663Z,96157.31
2023-07-18T11:36:38.856Z,96133.00
2023-07-18T11:39:23.208Z,96136.50
2023-07-18T11:41:52.595Z,96134.53
2023-07-18T11:44:27.708Z,96125.66
2023-07-18T11:46:55.731Z,96089.28
2023-07-18T11:49:36.748Z,96080.38
2023-07-18T11:52:05.878Z,96097.41
2023-07-18T11:54:36.834Z,96097.81
2023-07-18T11:57:05.230Z,96037.06
2023-07-18T11:59:32.389Z,95976.28
2023-07-18T12:01:58.956Z,95870.25
2023-07-18T12:04:25.561Z,95840.84
2023-07-18T12:06:55.400Z,95883.00
2023-07-18T12:09:22.490Z,95982.47
2023-07-18T12:11:48.997Z,96026.59
2023-07-18T12:14:15.801Z,96062.19
2023-07-18T12:16:42.419Z,96081.94
2023-07-18T12:19:09.443Z,96104.75
2023-07-18T12:21:36.235Z,96186.75
2023-07-18T12:24:05.291Z,96190.22
2023-07-18T12:26:31.895Z,96215.25
2023-07-18T12:28:58.661Z,96226.06
2023-07-18T12:31:25.599Z,96218.13
2023-07-18T12:33:53.125Z,96294.03
2023-07-18T12:36:20.609Z,96295.78
2023-07-18T12:38:47.885Z,96327.19
2023-07-18T12:41:14.467Z,96322.59
2023-07-18T12:43:40.999Z,96373.84
2023-07-18T12:46:09.893Z,96405.13
2023-07-18T12:48:36.504Z,96390.75
2023-07-18T12:51:04.235Z,96337.44
2023-07-18T12:53:30.814Z,96407.41
2023-07-18T12:55:57.375Z,96396.09
2023-07-18T12:58:23.938Z,96342.78
2023-07-18T13:00:50.518Z,96334.91
2023-07-18T13:03:18.294Z,96297.66
2023-07-18T13:05:44.970Z,96274.00
2023-07-18T13:08:12.318Z,96208.41
2023-07-18T13:10:39.003Z,96203.66
2023-07-18T13:13:07.383Z,96201.75
2023-07-18T13:15:34.030Z,96140.66
2023-07-18T13:18:00.678Z,96092.81
2023-07-18T13:20:27.780Z,96049.25
2023-07-18T13:22:54.442Z,96080.06
2023-07-18T13:25:21.276Z,96073.75
2023-07-18T13:27:47.819Z,96038.72
2023-07-18T13:30:14.732Z,95975.31
2023-07-18T13:32:43.034Z,95905.28
2023-07-18T13:35:09.724Z,95905.47
2023-07-18T13:37:36.277Z,95914.34
2023-07-18T13:40:02.891Z,95920.25
2023-07-18T13:42:29.393Z,95893.22
2023-07-18T13:44:55.977Z,95910.59
2023-07-18T13:47:31.089Z,95947.78
2023-07-18T13:49:57.849Z,95946.63
2023-07-18T13:52:24.355Z,95989.88
2023-07-18T13:54:50.980Z,96008.88
2023-07-18T13:57:17.579Z,96046.97
2023-07-18T13:59:44.502Z,96043.47
2023-07-18T14:02:11.494Z,96073.34
2023-07-18T14:04:38.209Z,96092.28
2023-07-18T14:07:04.738Z,96077.59
2023-07-18T14:09:31.311Z,96050.59
2023-07-18T14:11:57.890Z,96030.13
2023-07-18T14:14:24.518Z,96030.56
2023-07-18T14:16:51.799Z,96003.56
2023-07-18T14:19:18.569Z,95976.47
2023-07-18T14:21:45.987Z,95976.56
2023-07-18T14:24:12.641Z,95973.47
2023-07-18T14:26:39.143Z,95958.00
2023-07-18T14:29:05.653Z,95929.09
2023-07-18T14:31:33.520Z,95933.34
2023-07-18T14:34:06.113Z,95913.31
2023-07-18T14:36:33.809Z,95894.00
2023-07-18T14:39:00.415Z,95871.25
2023-07-18T14:41:26.970Z,95880.22
2023-07-18T14:43:53.533Z,95881.38
2023-07-18T14:46:20.335Z,95915.38
2023-07-18T14:48:47.196Z,95928.91
2023-07-18T14:51:14.370Z,95931.22
2023-07-18T14:53:41.031Z,95956.72
2023-07-18T14:56:07.991Z,95959.84
2023-07-18T14:58:34.551Z,95960.63
2023-07-18T15:01:01.268Z,95977.69
2023-07-18T15:03:27.991Z,95986.19
2023-07-18T15:05:54.597Z,95971.53
2023-07-18T15:08:21.535Z,95981.56
2023-07-18T15:10:48.015Z,95982.69
2023-07-18T15:13:14.591Z,95983.09
2023-07-18T15:15:42.802Z,95966.88
2023-07-18T15:18:10.369Z,95971.50
2023-07-18T15:20:37.001Z,95964.16
2023-07-18T15:23:03.602Z,95958.38
2023-07-18T15:25:32.143Z,95972.28
2023-07-18T15:28:00.664Z,95946.78
2023-07-18T15:30:27.892Z,95939.09
2023-07-18T15:32:54.472Z,95914.75
2023-07-18T15:35:21.323Z,95894.63
2023-07-18T15:37:47.829Z,95880.38
2023-07-18T15:40:14.422Z,95873.06
2023-07-18T15:42:41.464Z,95882.69
2023-07-18T15:45:08.555Z,95896.59
2023-07-18T15:47:35.110Z,95879.22
2023-07-18T15:50:01.615Z,95875.75
2023-07-18T15:52:28.849Z,95866.81
2023-07-18T15:54:55.341Z,95827.03
2023-07-18T15:57:23.172Z,95786.47
2023-07-18T15:59:50.176Z,95762.56
2023-07-18T16:02:16.811Z,95784.56
2023-07-18T16:04:43.419Z,95775.28
2023-07-18T16:07:10.002Z,95761.38
2023-07-18T16:09:53.336Z,95791.53
2023-07-18T16:12:20.595Z,95773.75
2023-07-18T16:14:47.804Z,95776.81
2023-07-18T16:17:14.825Z,95775.28
2023-07-18T16:19:45.755Z,95784.53
2023-07-18T16:22:12.383Z,95772.94
2023-07-18T16:24:40.678Z,95764.06
2023-07-18T16:27:07.373Z,95761.34
2023-07-18T16:29:34.211Z,95721.16
2023-07-18T16:32:00.802Z,95710.31
2023-07-18T16:34:27.843Z,95709.16
2023-07-18T16:36:56.379Z,95725.78
2023-07-18T16:39:22.924Z,95763.28
2023-07-18T16:41:49.456Z,95748.97
2023-07-18T16:46:43.273Z,95764.00
2023-07-18T16:49:09.832Z,95763.63
2023-07-18T16:56:01.282Z,95732.72
2023-07-18T16:58:28.464Z,95757.47
2023-07-18T17:00:55.107Z,95749.72
2023-07-18T17:03:22.039Z,95761.31
2023-07-18T17:05:49.257Z,95772.91
2023-07-18T17:08:15.942Z,95777.19
2023-07-18T17:10:42.663Z,95789.91
2023-07-18T17:13:09.439Z,95787.22
2023-07-18T17:15:38.146Z,95781.44
2023-07-18T17:18:06.250Z,95779.09
2023-07-18T17:20:32.876Z,95776.81
2023-07-18T17:23:00.606Z,95774.47
2023-07-18T17:25:28.441Z,95769.47
2023-07-18T17:27:55.091Z,95769.47
2023-07-18T17:30:22.332Z,95769.09
2023-07-18T17:32:48.904Z,95763.31
2023-07-18T17:35:16.341Z,95781.47
2023-07-18T17:37:44.058Z,95789.97
2023-07-18T17:40:14.383Z,95789.19
2023-07-18T17:42:43.149Z,95792.69
2023-07-18T17:45:10.878Z,95781.44
2023-07-18T17:47:38.380Z,95791.13
2023-07-18T17:50:06.191Z,95783.75
2023-07-18T17:52:33.406Z,95777.19
2023-07-18T17:55:00.404Z,95771.41
2023-07-18T17:57:30.171Z,95773.69
2023-07-18T17:59:58.819Z,95759.00
2023-07-18T18:02:25.705Z,95770.22
2023-07-18T18:04:57.988Z,95772.16
2023-07-18T18:07:24.911Z,95785.66
2023-07-18T18:09:51.412Z,95787.56
2023-07-18T18:12:17.929Z,95799.91
2023-07-18T18:14:44.900Z,95801.84
2023-07-18T18:17:11.559Z,95798.75
2023-07-18T18:19:38.140Z,95799.91
2023-07-18T18:22:05.070Z,95800.66
2023-07-18T18:24:31.587Z,95805.25
2023-07-18T18:26:58.142Z,95805.25
2023-07-18T18:29:26.838Z,95799.44
2023-07-18T18:31:54.077Z,95800.59
2023-07-18T18:34:20.692Z,95820.66
2023-07-18T18:36:47.268Z,95806.69
2023-07-18T18:39:13.939Z,95816.38
2023-07-18T18:41:40.438Z,95817.50
2023-07-18T18:44:06.981Z,95806.66
2023-07-18T18:46:34.019Z,95824.81
2023-07-18T18:49:03.675Z,95830.59
2023-07-18T18:51:31.098Z,95826.28
2023-07-18T18:53:57.634Z,95835.53
2023-07-18T18:56:24.596Z,95823.50
2023-07-18T18:58:51.110Z,95829.72
2023-07-18T19:01:17.802Z,95834.34
2023-07-18T19:03:44.566Z,95834.69
2023-07-18T19:06:11.156Z,95834.69
2023-07-18T19:08:37.669Z,95825.38
2023-07-18T19:11:08.086Z,95825.75
2023-07-18T19:13:35.232Z,95806.84
2023-07-18T19:16:01.939Z,95803.75
2023-07-18T19:18:28.567Z,95791.75
2023-07-18T19:20:55.151Z,95800.97
2023-07-18T19:23:21.690Z,95792.03
2023-07-18T19:25:48.226Z,95785.41
2023-07-18T19:28:14.725Z,95777.16
2023-07-18T19:30:41.348Z,95771.75
2023-07-18T19:33:08.153Z,95765.13
2023-07-18T19:35:34.963Z,95769.69
2023-07-18T19:38:03.262Z,95770.34
2023-07-18T19:40:31.312Z,95771.81
2023-07-18T19:42:58.093Z,95773.75
2023-07-18T19:45:24.664Z,95777.22
2023-07-18T19:47:51.227Z,95786.84
2023-07-18T19:50:17.893Z,95779.84
2023-07-18T19:52:44.497Z,95780.25
2023-07-18T19:55:11.341Z,95778.72
2023-07-18T19:57:37.935Z,95778.66
2023-07-18T20:00:07.090Z,95781.75
2023-07-18T20:02:33.777Z,95783.31
2023-07-18T20:05:00.419Z,95783.31
2023-07-18T20:07:26.960Z,95777.53
2023-07-18T20:09:55.799Z,95780.97
2023-07-18T20:12:22.902Z,95777.06
2023-07-18T20:14:49.459Z,95785.50
2023-07-18T20:17:16.081Z,95785.88
2023-07-18T20:19:44.442Z,95792.75
2023-07-18T20:22:11.075Z,95797.69
2023-07-18T20:24:37.616Z,95809.25
2023-07-18T20:27:04.655Z,95819.25
2023-07-18T20:29:32.082Z,95832.69
2023-07-18T20:31:58.716Z,95840.34
2023-07-18T20:34:25.257Z,95834.09
2023-07-18T20:36:51.837Z,95829.91
2023-07-18T20:39:18.432Z,95801.44
2023-07-18T20:41:45.041Z,95808.03
2023-07-18T20:44:13.091Z,95826.16
2023-07-18T20:46:39.712Z,95818.03
2023-07-18T20:49:07.566Z,95822.56
2023-07-18T20:51:34.085Z,95872.22
2023-07-18T20:54:00.725Z,96046.47
2023-07-18T20:56:27.262Z,95968.88
2023-07-18T20:58:53.784Z,95875.16
2023-07-18T21:01:22.274Z,95878.97
2023-07-18T21:03:49.225Z,95887.25
2023-07-18T21:06:15.787Z,95867.28
2023-07-18T21:08:42.739Z,95856.06
2023-07-18T21:11:09.297Z,95843.72
2023-07-18T21:13:35.827Z,95857.09
2023-07-18T21:16:02.412Z,95872.00
2023-07-18T21:18:29.036Z,95861.13
2023-07-18T21:20:56.568Z,95842.34
2023-07-18T21:23:23.241Z,95831.72
2023-07-18T21:25:49.920Z,95830.94
2023-07-18T21:28:16.681Z,95822.41
2023-07-18T21:30:43.286Z,95819.38
2023-07-18T21:33:09.941Z,95825.53
2023-07-18T21:35:36.568Z,95813.28
2023-07-18T21:38:03.178Z,95820.09
2023-07-18T21:40:29.723Z,95823.91
2023-07-18T21:42:56.306Z,95820.91
2023-07-18T21:45:22.917Z,95826.69
2023-07-18T21:47:49.536Z,95811.84
2023-07-18T21:50:16.153Z,95799.47
2023-07-18T21:52:44.316Z,95803.38
2023-07-18T21:55:10.855Z,95796.88
2023-07-18T21:57:37.440Z,95792.97
2023-07-18T22:00:06.182Z,95802.91
2023-07-18T22:02:39.193Z,95807.19
2023-07-18T22:05:05.946Z,95801.22
2023-07-18T22:07:32.957Z,95798.31
2023-07-18T22:10:01.196Z,95794.41
2023-07-18T22:12:27.820Z,95793.13
2023-07-18T22:14:54.703Z,95790.38
2023-07-18T22:17:21.296Z,95819.59
2023-07-18T22:19:48.219Z,95821.31
2023-07-18T22:22:15.848Z,95831.84
2023-07-18T22:24:42.559Z,95827.81
2023-07-18T22:27:09.322Z,95822.69
2023-07-18T22:29:36.046Z,95822.47
2023-07-18T22:32:02.621Z,95806.63
2023-07-18T22:34:29.316Z,95803.94
2023-07-18T22:36:56.265Z,95790.81
2023-07-18T22:39:34.495Z,95772.47
2023-07-18T22:42:14.127Z,95772.13
2023-07-18T22:44:41.937Z,95773.16
2023-07-18T22:47:08.748Z,95770.06
2023-07-18T22:49:35.623Z,95773.50
2023-07-18T22:52:02.172Z,95762.91
2023-07-18T22:54:29.389Z,95773.78
2023-07-18T22:56:56.088Z,95769.91
2023-07-18T22:59:22.707Z,95777.84
2023-07-18T23:01:50.197Z,95760.75
2023-07-18T23:04:17.353Z,95778.97
2023-07-18T23:06:45.996Z,95788.47
2023-07-18T23:09:12.660Z,95792.38
2023-07-18T23:11:39.456Z,95789.25
2023-07-18T23:14:06.278Z,95789.59
2023-07-18T23:16:32.889Z,95795.31
2023-07-18T23:18:59.476Z,95797.56
2023-07-18T23:21:26.056Z,95799.81
2023-07-18T23:23:52.603Z,95787.91
2023-07-18T23:26:19.678Z,95788.13
2023-07-18T23:28:46.654Z,95778.91
2023-07-18T23:31:14.114Z,95782.41
2023-07-18T23:33:40.886Z,95778.00
2023-07-18T23:36:07.448Z,95777.34
2023-07-18T23:38:34.155Z,95771.78
2023-07-18T23:41:00.767Z,95757.78
2023-07-18T23:43:31.400Z,95764.63
2023-07-18T23:45:58.552Z,95772.47
2023-07-18T23:48:25.412Z,95770.66
2023-07-18T23:50:52.192Z,95759.19
2023-07-18T23:53:19.119Z,95750.88
2023-07-18T23:55:46.442Z,95744.41
2023-07-18T23:58:13.138Z,95732.75
